sensor_id;sensor_type;location;lat;lon;timestamp;P1;durP1;ratioP1;P2;durP2;ratioP2
5841;SDS011;2947;52.276;9.946;2023-04-15T00:01:24;8.67;;;4.87;;
5841;SDS011;2947;52.276;9.946;2023-04-15T00:03:51;8.13;;;5.47;;
5841;SDS011;2947;52.276;9.946;2023-04-15T00:06:19;10.77;;;4.87;;
5841;SDS011;2947;52.276;9.946;2023-04-15T00:08:48;8.90;;;5.53;;
5841;SDS011;2947;52.276;9.946;2023-04-15T00:11:14;6.87;;;4.77;;
5841;SDS011;2947;52.276;9.946;2023-04-15T00:13:42;7.70;;;4.77;;
5841;SDS011;2947;52.276;9.946;2023-04-15T00:16:08;8.93;;;5.30;;
5841;SDS011;2947;52.276;9.946;2023-04-15T00:18:34;11.13;;;4.97;;
5841;SDS011;2947;52.276;9.946;2023-04-15T00:21:01;6.67;;;4.80;;
5841;SDS011;2947;52.276;9.946;2023-04-15T00:23:28;7.03;;;4.77;;
5841;SDS011;2947;52.276;9.946;2023-04-15T00:25:54;7.80;;;4.73;;
5841;SDS011;2947;52.276;9.946;2023-04-15T00:28:19;10.23;;;5.30;;
5841;SDS011;2947;52.276;9.946;2023-04-15T00:30:45;8.07;;;4.30;;
5841;SDS011;2947;52.276;9.946;2023-04-15T00:33:14;11.07;;;5.43;;
5841;SDS011;2947;52.276;9.946;2023-04-15T00:35:42;9.13;;;5.70;;
5841;SDS011;2947;52.276;9.946;2023-04-15T00:38:08;14.20;;;4.60;;
5841;SDS011;2947;52.276;9.946;2023-04-15T00:40:34;9.27;;;4.93;;
5841;SDS011;2947;52.276;9.946;2023-04-15T00:43:00;8.83;;;5.80;;
5841;SDS011;2947;52.276;9.946;2023-04-15T00:45:26;7.87;;;4.77;;
5841;SDS011;2947;52.276;9.946;2023-04-15T00:47:52;9.20;;;5.13;;
5841;SDS011;2947;52.276;9.946;2023-04-15T00:50:19;8.33;;;5.30;;
5841;SDS011;2947;52.276;9.946;2023-04-15T00:52:46;8.83;;;4.47;;
5841;SDS011;2947;52.276;9.946;2023-04-15T00:55:11;5.93;;;4.40;;
5841;SDS011;2947;52.276;9.946;2023-04-15T00:57:37;7.57;;;5.40;;
5841;SDS011;2947;52.276;9.946;2023-04-15T01:00:04;8.00;;;4.83;;
5841;SDS011;2947;52.276;9.946;2023-04-15T01:02:33;8.87;;;4.80;;
5841;SDS011;2947;52.276;9.946;2023-04-15T01:05:00;8.47;;;4.53;;
5841;SDS011;2947;52.276;9.946;2023-04-15T01:07:28;8.30;;;4.77;;
5841;SDS011;2947;52.276;9.946;2023-04-15T01:09:54;7.30;;;4.90;;
5841;SDS011;2947;52.276;9.946;2023-04-15T01:12:20;7.90;;;5.43;;
5841;SDS011;2947;52.276;9.946;2023-04-15T01:14:47;9.97;;;5.33;;
5841;SDS011;2947;52.276;9.946;2023-04-15T01:17:12;7.50;;;5.00;;
5841;SDS011;2947;52.276;9.946;2023-04-15T01:19:38;8.77;;;4.90;;
5841;SDS011;2947;52.276;9.946;2023-04-15T01:22:04;9.30;;;5.17;;
5841;SDS011;2947;52.276;9.946;2023-04-15T01:24:30;8.90;;;5.67;;
5841;SDS011;2947;52.276;9.946;2023-04-15T01:26:57;7.47;;;4.83;;
5841;SDS011;2947;52.276;9.946;2023-04-15T01:29:23;12.10;;;6.40;;
5841;SDS011;2947;52.276;9.946;2023-04-15T01:31:52;8.20;;;5.03;;
5841;SDS011;2947;52.276;9.946;2023-04-15T01:34:20;7.63;;;5.17;;
5841;SDS011;2947;52.276;9.946;2023-04-15T01:36:46;8.80;;;5.23;;
5841;SDS011;2947;52.276;9.946;2023-04-15T01:39:12;8.97;;;5.23;;
5841;SDS011;2947;52.276;9.946;2023-04-15T01:41:38;9.70;;;6.47;;
5841;SDS011;2947;52.276;9.946;2023-04-15T01:44:04;12.70;;;6.13;;
5841;SDS011;2947;52.276;9.946;2023-04-15T01:46:31;9.40;;;6.00;;
5841;SDS011;2947;52.276;9.946;2023-04-15T01:48:57;12.10;;;6.50;;
5841;SDS011;2947;52.276;9.946;2023-04-15T01:51:23;9.07;;;6.00;;
5841;SDS011;2947;52.276;9.946;2023-04-15T01:53:49;9.93;;;6.10;;
5841;SDS011;2947;52.276;9.946;2023-04-15T01:56:15;12.63;;;6.53;;
5841;SDS011;2947;52.276;9.946;2023-04-15T01:58:40;12.23;;;6.60;;
5841;SDS011;2947;52.276;9.946;2023-04-15T02:01:06;14.17;;;7.00;;
5841;SDS011;2947;52.276;9.946;2023-04-15T02:03:34;16.77;;;6.93;;
5841;SDS011;2947;52.276;9.946;2023-04-15T02:05:59;13.27;;;8.20;;
5841;SDS011;2947;52.276;9.946;2023-04-15T02:08:26;13.80;;;7.40;;
5841;SDS011;2947;52.276;9.946;2023-04-15T02:10:52;19.73;;;7.93;;
5841;SDS011;2947;52.276;9.946;2023-04-15T02:13:18;14.33;;;7.80;;
5841;SDS011;2947;52.276;9.946;2023-04-15T02:15:47;17.27;;;7.90;;
5841;SDS011;2947;52.276;9.946;2023-04-15T02:18:14;17.53;;;9.57;;
5841;SDS011;2947;52.276;9.946;2023-04-15T02:20:41;16.83;;;8.03;;
5841;SDS011;2947;52.276;9.946;2023-04-15T02:23:11;17.13;;;9.40;;
5841;SDS011;2947;52.276;9.946;2023-04-15T02:25:37;16.20;;;9.00;;
5841;SDS011;2947;52.276;9.946;2023-04-15T02:28:06;16.50;;;8.50;;
5841;SDS011;2947;52.276;9.946;2023-04-15T02:30:32;16.93;;;9.33;;
5841;SDS011;2947;52.276;9.946;2023-04-15T02:32:57;20.80;;;10.10;;
5841;SDS011;2947;52.276;9.946;2023-04-15T02:35:24;19.33;;;10.20;;
5841;SDS011;2947;52.276;9.946;2023-04-15T02:37:50;20.97;;;10.07;;
5841;SDS011;2947;52.276;9.946;2023-04-15T02:40:16;18.57;;;10.23;;
5841;SDS011;2947;52.276;9.946;2023-04-15T02:42:43;17.20;;;9.73;;
5841;SDS011;2947;52.276;9.946;2023-04-15T02:45:09;20.00;;;10.63;;
5841;SDS011;2947;52.276;9.946;2023-04-15T02:47:36;20.87;;;10.40;;
5841;SDS011;2947;52.276;9.946;2023-04-15T02:50:08;20.50;;;10.23;;
5841;SDS011;2947;52.276;9.946;2023-04-15T02:52:36;17.93;;;10.00;;
5841;SDS011;2947;52.276;9.946;2023-04-15T02:55:06;21.20;;;10.63;;
5841;SDS011;2947;52.276;9.946;2023-04-15T02:57:32;21.90;;;10.90;;
5841;SDS011;2947;52.276;9.946;2023-04-15T03:00:00;20.23;;;10.33;;
5841;SDS011;2947;52.276;9.946;2023-04-15T03:02:26;20.43;;;11.23;;
5841;SDS011;2947;52.276;9.946;2023-04-15T03:04:51;23.40;;;9.63;;
5841;SDS011;2947;52.276;9.946;2023-04-15T03:07:18;19.77;;;10.67;;
5841;SDS011;2947;52.276;9.946;2023-04-15T03:09:44;25.27;;;10.73;;
5841;SDS011;2947;52.276;9.946;2023-04-15T03:12:11;22.40;;;11.90;;
5841;SDS011;2947;52.276;9.946;2023-04-15T03:14:37;19.73;;;9.93;;
5841;SDS011;2947;52.276;9.946;2023-04-15T03:17:03;20.33;;;9.90;;
5841;SDS011;2947;52.276;9.946;2023-04-15T03:19:28;23.70;;;10.63;;
5841;SDS011;2947;52.276;9.946;2023-04-15T03:21:54;18.50;;;9.90;;
5841;SDS011;2947;52.276;9.946;2023-04-15T03:24:19;21.60;;;11.00;;
5841;SDS011;2947;52.276;9.946;2023-04-15T03:26:45;21.67;;;11.60;;
5841;SDS011;2947;52.276;9.946;2023-04-15T03:29:11;19.63;;;10.70;;
5841;SDS011;2947;52.276;9.946;2023-04-15T03:31:36;20.13;;;10.90;;
5841;SDS011;2947;52.276;9.946;2023-04-15T03:34:02;20.83;;;10.00;;
5841;SDS011;2947;52.276;9.946;2023-04-15T03:36:28;24.17;;;11.17;;
5841;SDS011;2947;52.276;9.946;2023-04-15T03:38:58;20.97;;;11.67;;
5841;SDS011;2947;52.276;9.946;2023-04-15T03:41:26;18.40;;;10.53;;
5841;SDS011;2947;52.276;9.946;2023-04-15T03:43:52;20.40;;;11.10;;
5841;SDS011;2947;52.276;9.946;2023-04-15T03:46:18;20.30;;;11.23;;
5841;SDS011;2947;52.276;9.946;2023-04-15T03:48:45;20.27;;;11.30;;
5841;SDS011;2947;52.276;9.946;2023-04-15T03:51:12;22.50;;;11.80;;
5841;SDS011;2947;52.276;9.946;2023-04-15T03:53:37;24.33;;;11.33;;
5841;SDS011;2947;52.276;9.946;2023-04-15T03:56:03;23.50;;;12.60;;
5841;SDS011;2947;52.276;9.946;2023-04-15T03:58:29;21.83;;;11.53;;
5841;SDS011;2947;52.276;9.946;2023-04-15T04:00:55;23.97;;;12.13;;
5841;SDS011;2947;52.276;9.946;2023-04-15T04:03:21;28.40;;;12.70;;
5841;SDS011;2947;52.276;9.946;2023-04-15T04:05:47;23.20;;;12.97;;
5841;SDS011;2947;52.276;9.946;2023-04-15T04:08:12;22.83;;;13.90;;
5841;SDS011;2947;52.276;9.946;2023-04-15T04:10:40;22.77;;;13.37;;
5841;SDS011;2947;52.276;9.946;2023-04-15T04:13:06;24.33;;;12.07;;
5841;SDS011;2947;52.276;9.946;2023-04-15T04:15:31;24.73;;;13.87;;
5841;SDS011;2947;52.276;9.946;2023-04-15T04:17:58;27.57;;;13.37;;
5841;SDS011;2947;52.276;9.946;2023-04-15T04:20:24;26.77;;;14.27;;
5841;SDS011;2947;52.276;9.946;2023-04-15T04:22:49;28.10;;;14.20;;
5841;SDS011;2947;52.276;9.946;2023-04-15T04:25:15;23.57;;;13.73;;
5841;SDS011;2947;52.276;9.946;2023-04-15T04:27:43;27.10;;;15.60;;
5841;SDS011;2947;52.276;9.946;2023-04-15T04:30:09;31.00;;;15.10;;
5841;SDS011;2947;52.276;9.946;2023-04-15T04:32:36;28.87;;;14.23;;
5841;SDS011;2947;52.276;9.946;2023-04-15T04:35:02;29.30;;;15.37;;
5841;SDS011;2947;52.276;9.946;2023-04-15T04:37:29;26.97;;;14.27;;
5841;SDS011;2947;52.276;9.946;2023-04-15T04:39:55;31.57;;;15.10;;
5841;SDS011;2947;52.276;9.946;2023-04-15T04:42:21;33.77;;;16.77;;
5841;SDS011;2947;52.276;9.946;2023-04-15T04:44:46;31.40;;;15.30;;
5841;SDS011;2947;52.276;9.946;2023-04-15T04:47:12;30.97;;;16.50;;
5841;SDS011;2947;52.276;9.946;2023-04-15T04:49:38;33.47;;;15.80;;
5841;SDS011;2947;52.276;9.946;2023-04-15T04:52:04;33.73;;;16.97;;
5841;SDS011;2947;52.276;9.946;2023-04-15T04:54:31;29.77;;;17.00;;
5841;SDS011;2947;52.276;9.946;2023-04-15T04:56:57;28.37;;;14.63;;
5841;SDS011;2947;52.276;9.946;2023-04-15T04:59:23;32.97;;;15.10;;
5841;SDS011;2947;52.276;9.946;2023-04-15T05:01:48;29.97;;;16.27;;
5841;SDS011;2947;52.276;9.946;2023-04-15T05:04:14;29.73;;;16.07;;
5841;SDS011;2947;52.276;9.946;2023-04-15T05:06:40;27.87;;;15.17;;
5841;SDS011;2947;52.276;9.946;2023-04-15T05:09:06;29.77;;;15.90;;
5841;SDS011;2947;52.276;9.946;2023-04-15T05:11:32;28.80;;;15.80;;
5841;SDS011;2947;52.276;9.946;2023-04-15T05:13:58;26.87;;;14.80;;
5841;SDS011;2947;52.276;9.946;2023-04-15T05:16:25;29.30;;;14.57;;
5841;SDS011;2947;52.276;9.946;2023-04-15T05:18:51;29.50;;;14.77;;
5841;SDS011;2947;52.276;9.946;2023-04-15T05:21:17;31.50;;;16.43;;
5841;SDS011;2947;52.276;9.946;2023-04-15T05:23:43;27.77;;;15.03;;
5841;SDS011;2947;52.276;9.946;2023-04-15T05:26:08;29.20;;;14.70;;
5841;SDS011;2947;52.276;9.946;2023-04-15T05:28:34;33.43;;;14.80;;
5841;SDS011;2947;52.276;9.946;2023-04-15T05:31:00;23.50;;;13.03;;
5841;SDS011;2947;52.276;9.946;2023-04-15T05:33:26;28.07;;;14.00;;
5841;SDS011;2947;52.276;9.946;2023-04-15T05:35:52;26.77;;;14.03;;
5841;SDS011;2947;52.276;9.946;2023-04-15T05:38:17;25.53;;;13.43;;
5841;SDS011;2947;52.276;9.946;2023-04-15T05:40:44;21.53;;;12.20;;
5841;SDS011;2947;52.276;9.946;2023-04-15T05:43:10;23.70;;;12.63;;
5841;SDS011;2947;52.276;9.946;2023-04-15T05:45:36;22.77;;;12.20;;
5841;SDS011;2947;52.276;9.946;2023-04-15T05:48:01;24.63;;;12.97;;
5841;SDS011;2947;52.276;9.946;2023-04-15T05:50:27;20.90;;;11.93;;
5841;SDS011;2947;52.276;9.946;2023-04-15T05:52:53;22.90;;;12.13;;
5841;SDS011;2947;52.276;9.946;2023-04-15T05:55:18;22.37;;;11.40;;
5841;SDS011;2947;52.276;9.946;2023-04-15T05:57:44;23.30;;;13.10;;
5841;SDS011;2947;52.276;9.946;2023-04-15T06:00:10;24.00;;;13.47;;
5841;SDS011;2947;52.276;9.946;2023-04-15T06:02:37;19.63;;;11.00;;
5841;SDS011;2947;52.276;9.946;2023-04-15T06:05:02;20.70;;;10.80;;
5841;SDS011;2947;52.276;9.946;2023-04-15T06:07:33;18.50;;;10.33;;
5841;SDS011;2947;52.276;9.946;2023-04-15T06:10:02;20.20;;;10.40;;
5841;SDS011;2947;52.276;9.946;2023-04-15T06:12:29;16.83;;;9.47;;
5841;SDS011;2947;52.276;9.946;2023-04-15T06:14:55;19.80;;;10.07;;
5841;SDS011;2947;52.276;9.946;2023-04-15T06:17:21;18.87;;;10.00;;
5841;SDS011;2947;52.276;9.946;2023-04-15T06:19:49;18.87;;;9.80;;
5841;SDS011;2947;52.276;9.946;2023-04-15T06:22:20;20.63;;;10.40;;
5841;SDS011;2947;52.276;9.946;2023-04-15T06:24:48;14.43;;;8.40;;
5841;SDS011;2947;52.276;9.946;2023-04-15T06:27:17;16.17;;;8.83;;
5841;SDS011;2947;52.276;9.946;2023-04-15T06:29:43;13.83;;;8.23;;
5841;SDS011;2947;52.276;9.946;2023-04-15T06:32:09;17.27;;;8.70;;
5841;SDS011;2947;52.276;9.946;2023-04-15T06:34:35;17.37;;;9.73;;
5841;SDS011;2947;52.276;9.946;2023-04-15T06:37:01;15.97;;;8.17;;
5841;SDS011;2947;52.276;9.946;2023-04-15T06:39:27;15.20;;;8.67;;
5841;SDS011;2947;52.276;9.946;2023-04-15T06:41:53;17.93;;;8.77;;
5841;SDS011;2947;52.276;9.946;2023-04-15T06:44:18;14.23;;;7.20;;
5841;SDS011;2947;52.276;9.946;2023-04-15T06:46:44;15.50;;;7.67;;
5841;SDS011;2947;52.276;9.946;2023-04-15T06:49:10;14.33;;;8.20;;
5841;SDS011;2947;52.276;9.946;2023-04-15T06:51:36;14.67;;;7.73;;
5841;SDS011;2947;52.276;9.946;2023-04-15T06:54:02;14.67;;;7.87;;
5841;SDS011;2947;52.276;9.946;2023-04-15T06:56:30;13.17;;;7.40;;
5841;SDS011;2947;52.276;9.946;2023-04-15T06:58:57;13.40;;;7.87;;
5841;SDS011;2947;52.276;9.946;2023-04-15T07:01:23;15.87;;;7.90;;
5841;SDS011;2947;52.276;9.946;2023-04-15T07:03:49;17.37;;;7.03;;
5841;SDS011;2947;52.276;9.946;2023-04-15T07:06:14;16.03;;;7.10;;
5841;SDS011;2947;52.276;9.946;2023-04-15T07:08:41;13.67;;;7.77;;
5841;SDS011;2947;52.276;9.946;2023-04-15T07:11:06;17.30;;;7.40;;
5841;SDS011;2947;52.276;9.946;2023-04-15T07:13:32;12.23;;;6.37;;
5841;SDS011;2947;52.276;9.946;2023-04-15T07:15:58;14.63;;;7.03;;
5841;SDS011;2947;52.276;9.946;2023-04-15T07:18:24;13.90;;;6.87;;
5841;SDS011;2947;52.276;9.946;2023-04-15T07:20:50;11.67;;;6.53;;
5841;SDS011;2947;52.276;9.946;2023-04-15T07:23:16;10.77;;;7.10;;
5841;SDS011;2947;52.276;9.946;2023-04-15T07:25:42;11.57;;;6.87;;
5841;SDS011;2947;52.276;9.946;2023-04-15T07:28:08;13.70;;;8.40;;
5841;SDS011;2947;52.276;9.946;2023-04-15T07:30:33;11.33;;;6.63;;
5841;SDS011;2947;52.276;9.946;2023-04-15T07:33:00;12.63;;;6.53;;
5841;SDS011;2947;52.276;9.946;2023-04-15T07:35:26;10.10;;;6.63;;
5841;SDS011;2947;52.276;9.946;2023-04-15T07:37:53;11.60;;;6.10;;
5841;SDS011;2947;52.276;9.946;2023-04-15T07:40:19;10.97;;;5.93;;
5841;SDS011;2947;52.276;9.946;2023-04-15T07:42:46;10.10;;;5.67;;
5841;SDS011;2947;52.276;9.946;2023-04-15T07:45:13;12.03;;;5.93;;
5841;SDS011;2947;52.276;9.946;2023-04-15T07:47:39;9.50;;;5.20;;
5841;SDS011;2947;52.276;9.946;2023-04-15T07:50:06;15.13;;;6.00;;
5841;SDS011;2947;52.276;9.946;2023-04-15T07:52:35;8.80;;;5.47;;
5841;SDS011;2947;52.276;9.946;2023-04-15T07:55:06;11.03;;;5.63;;
5841;SDS011;2947;52.276;9.946;2023-04-15T07:57:33;10.33;;;5.90;;
5841;SDS011;2947;52.276;9.946;2023-04-15T08:00:00;8.53;;;4.63;;
5841;SDS011;2947;52.276;9.946;2023-04-15T08:02:29;8.10;;;4.73;;
5841;SDS011;2947;52.276;9.946;2023-04-15T08:04:55;9.37;;;5.63;;
5841;SDS011;2947;52.276;9.946;2023-04-15T08:07:21;8.97;;;5.13;;
5841;SDS011;2947;52.276;9.946;2023-04-15T08:09:47;8.43;;;5.37;;
5841;SDS011;2947;52.276;9.946;2023-04-15T08:12:13;7.73;;;5.00;;
5841;SDS011;2947;52.276;9.946;2023-04-15T08:14:39;7.33;;;4.50;;
5841;SDS011;2947;52.276;9.946;2023-04-15T08:17:05;6.77;;;3.83;;
5841;SDS011;2947;52.276;9.946;2023-04-15T08:19:32;8.57;;;4.33;;
5841;SDS011;2947;52.276;9.946;2023-04-15T08:21:58;6.77;;;4.10;;
5841;SDS011;2947;52.276;9.946;2023-04-15T08:24:24;9.40;;;5.07;;
5841;SDS011;2947;52.276;9.946;2023-04-15T08:26:51;7.97;;;4.43;;
5841;SDS011;2947;52.276;9.946;2023-04-15T08:29:17;6.10;;;3.63;;
5841;SDS011;2947;52.276;9.946;2023-04-15T08:31:43;6.60;;;4.23;;
5841;SDS011;2947;52.276;9.946;2023-04-15T08:34:12;6.50;;;4.10;;
5841;SDS011;2947;52.276;9.946;2023-04-15T08:36:39;6.60;;;3.43;;
5841;SDS011;2947;52.276;9.946;2023-04-15T08:39:06;7.03;;;4.00;;
5841;SDS011;2947;52.276;9.946;2023-04-15T08:41:51;6.63;;;3.63;;
5841;SDS011;2947;52.276;9.946;2023-04-15T08:44:21;6.50;;;4.00;;
5841;SDS011;2947;52.276;9.946;2023-04-15T08:46:50;6.93;;;3.93;;
5841;SDS011;2947;52.276;9.946;2023-04-15T08:49:17;8.50;;;4.30;;
5841;SDS011;2947;52.276;9.946;2023-04-15T08:51:46;6.90;;;4.67;;
5841;SDS011;2947;52.276;9.946;2023-04-15T08:54:13;7.83;;;4.20;;
5841;SDS011;2947;52.276;9.946;2023-04-15T08:56:40;8.50;;;3.87;;
5841;SDS011;2947;52.276;9.946;2023-04-15T08:59:06;8.70;;;4.53;;
5841;SDS011;2947;52.276;9.946;2023-04-15T09:01:33;8.07;;;4.50;;
5841;SDS011;2947;52.276;9.946;2023-04-15T09:03:59;8.30;;;4.60;;
5841;SDS011;2947;52.276;9.946;2023-04-15T09:06:27;9.60;;;5.37;;
5841;SDS011;2947;52.276;9.946;2023-04-15T09:08:53;10.30;;;5.97;;
5841;SDS011;2947;52.276;9.946;2023-04-15T09:11:20;9.27;;;6.07;;
5841;SDS011;2947;52.276;9.946;2023-04-15T09:13:47;8.90;;;5.40;;
5841;SDS011;2947;52.276;9.946;2023-04-15T09:16:13;9.43;;;5.43;;
5841;SDS011;2947;52.276;9.946;2023-04-15T09:18:39;12.13;;;6.03;;
5841;SDS011;2947;52.276;9.946;2023-04-15T09:21:06;10.23;;;6.10;;
5841;SDS011;2947;52.276;9.946;2023-04-15T09:23:39;11.90;;;7.13;;
5841;SDS011;2947;52.276;9.946;2023-04-15T09:26:09;9.00;;;6.00;;
5841;SDS011;2947;52.276;9.946;2023-04-15T09:28:42;12.00;;;6.43;;
5841;SDS011;2947;52.276;9.946;2023-04-15T09:31:08;11.53;;;6.20;;
5841;SDS011;2947;52.276;9.946;2023-04-15T09:33:35;11.53;;;6.63;;
5841;SDS011;2947;52.276;9.946;2023-04-15T09:36:18;9.83;;;6.70;;
5841;SDS011;2947;52.276;9.946;2023-04-15T09:39:02;13.03;;;7.73;;
5841;SDS011;2947;52.276;9.946;2023-04-15T09:41:27;14.43;;;7.77;;
5841;SDS011;2947;52.276;9.946;2023-04-15T09:43:53;13.23;;;6.77;;
5841;SDS011;2947;52.276;9.946;2023-04-15T09:46:19;11.03;;;6.50;;
5841;SDS011;2947;52.276;9.946;2023-04-15T09:49:08;8.97;;;6.07;;
5841;SDS011;2947;52.276;9.946;2023-04-15T09:51:35;11.63;;;6.70;;
5841;SDS011;2947;52.276;9.946;2023-04-15T09:54:02;11.03;;;5.97;;
5841;SDS011;2947;52.276;9.946;2023-04-15T09:56:35;11.60;;;6.33;;
5841;SDS011;2947;52.276;9.946;2023-04-15T09:59:05;12.03;;;6.50;;
5841;SDS011;2947;52.276;9.946;2023-04-15T10:01:35;11.80;;;6.40;;
5841;SDS011;2947;52.276;9.946;2023-04-15T10:04:04;10.87;;;5.87;;
5841;SDS011;2947;52.276;9.946;2023-04-15T10:06:30;11.80;;;5.93;;
5841;SDS011;2947;52.276;9.946;2023-04-15T10:08:58;13.40;;;6.97;;
5841;SDS011;2947;52.276;9.946;2023-04-15T10:11:25;12.00;;;6.30;;
5841;SDS011;2947;52.276;9.946;2023-04-15T10:13:53;14.33;;;7.47;;
5841;SDS011;2947;52.276;9.946;2023-04-15T10:16:20;13.73;;;7.00;;
5841;SDS011;2947;52.276;9.946;2023-04-15T10:18:55;14.13;;;8.23;;
5841;SDS011;2947;52.276;9.946;2023-04-15T10:21:23;16.63;;;7.97;;
5841;SDS011;2947;52.276;9.946;2023-04-15T10:23:49;13.60;;;7.50;;
5841;SDS011;2947;52.276;9.946;2023-04-15T10:26:15;16.07;;;7.37;;
5841;SDS011;2947;52.276;9.946;2023-04-15T10:28:43;16.93;;;8.10;;
5841;SDS011;2947;52.276;9.946;2023-04-15T10:31:13;19.23;;;8.13;;
5841;SDS011;2947;52.276;9.946;2023-04-15T10:33:41;16.10;;;8.23;;
5841;SDS011;2947;52.276;9.946;2023-04-15T10:36:09;25.37;;;10.13;;
5841;SDS011;2947;52.276;9.946;2023-04-15T10:41:12;17.80;;;8.97;;
5841;SDS011;2947;52.276;9.946;2023-04-15T10:43:55;21.13;;;10.67;;
5841;SDS011;2947;52.276;9.946;2023-04-15T10:46:38;24.00;;;11.50;;
5841;SDS011;2947;52.276;9.946;2023-04-15T10:49:15;22.60;;;10.67;;
5841;SDS011;2947;52.276;9.946;2023-04-15T10:51:53;29.13;;;13.07;;
5841;SDS011;2947;52.276;9.946;2023-04-15T10:56:50;31.70;;;14.37;;
5841;SDS011;2947;52.276;9.946;2023-04-15T10:59:31;34.90;;;14.50;;
5841;SDS011;2947;52.276;9.946;2023-04-15T11:02:04;30.57;;;15.33;;
5841;SDS011;2947;52.276;9.946;2023-04-15T11:10:01;43.43;;;17.87;;
5841;SDS011;2947;52.276;9.946;2023-04-15T11:12:35;39.33;;;17.07;;
5841;SDS011;2947;52.276;9.946;2023-04-15T11:18:10;40.60;;;18.47;;
5841;SDS011;2947;52.276;9.946;2023-04-15T11:23:15;39.50;;;17.57;;
5841;SDS011;2947;52.276;9.946;2023-04-15T11:26:07;44.33;;;19.23;;
5841;SDS011;2947;52.276;9.946;2023-04-15T11:28:36;40.80;;;18.70;;
5841;SDS011;2947;52.276;9.946;2023-04-15T11:31:09;39.80;;;17.63;;
5841;SDS011;2947;52.276;9.946;2023-04-15T11:33:37;45.87;;;19.10;;
5841;SDS011;2947;52.276;9.946;2023-04-15T11:36:24;42.70;;;19.70;;
5841;SDS011;2947;52.276;9.946;2023-04-15T11:38:51;47.30;;;18.93;;
5841;SDS011;2947;52.276;9.946;2023-04-15T11:41:21;43.43;;;20.13;;
5841;SDS011;2947;52.276;9.946;2023-04-15T11:43:48;44.23;;;19.33;;
5841;SDS011;2947;52.276;9.946;2023-04-15T11:46:15;45.13;;;19.73;;
5841;SDS011;2947;52.276;9.946;2023-04-15T11:48:42;43.37;;;18.97;;
5841;SDS011;2947;52.276;9.946;2023-04-15T11:51:11;45.83;;;21.07;;
5841;SDS011;2947;52.276;9.946;2023-04-15T11:53:45;49.13;;;22.60;;
5841;SDS011;2947;52.276;9.946;2023-04-15T11:56:23;51.60;;;23.80;;
5841;SDS011;2947;52.276;9.946;2023-04-15T11:58:51;46.63;;;20.97;;
5841;SDS011;2947;52.276;9.946;2023-04-15T12:01:20;40.27;;;18.57;;
5841;SDS011;2947;52.276;9.946;2023-04-15T12:03:56;46.90;;;22.27;;
5841;SDS011;2947;52.276;9.946;2023-04-15T12:06:24;54.90;;;22.07;;
5841;SDS011;2947;52.276;9.946;2023-04-15T12:09:03;51.00;;;23.00;;
5841;SDS011;2947;52.276;9.946;2023-04-15T12:11:50;48.00;;;24.30;;
5841;SDS011;2947;52.276;9.946;2023-04-15T12:14:19;38.47;;;20.30;;
5841;SDS011;2947;52.276;9.946;2023-04-15T12:16:50;56.67;;;22.50;;
5841;SDS011;2947;52.276;9.946;2023-04-15T12:20:00;47.57;;;22.13;;
5841;SDS011;2947;52.276;9.946;2023-04-15T12:22:10;61.40;;;24.80;;
5841;SDS011;2947;52.276;9.946;2023-04-15T12:24:38;53.90;;;22.40;;
5841;SDS011;2947;52.276;9.946;2023-04-15T12:27:05;53.13;;;25.43;;
5841;SDS011;2947;52.276;9.946;2023-04-15T12:29:37;55.90;;;25.60;;
5841;SDS011;2947;52.276;9.946;2023-04-15T12:32:09;55.73;;;24.67;;
5841;SDS011;2947;52.276;9.946;2023-04-15T12:34:41;48.67;;;23.03;;
5841;SDS011;2947;52.276;9.946;2023-04-15T12:37:15;53.60;;;23.53;;
5841;SDS011;2947;52.276;9.946;2023-04-15T12:39:42;53.20;;;22.83;;
5841;SDS011;2947;52.276;9.946;2023-04-15T12:42:10;50.73;;;25.10;;
5841;SDS011;2947;52.276;9.946;2023-04-15T12:44:37;67.60;;;30.50;;
5841;SDS011;2947;52.276;9.946;2023-04-15T12:47:03;56.73;;;26.80;;
5841;SDS011;2947;52.276;9.946;2023-04-15T12:49:31;57.43;;;25.73;;
5841;SDS011;2947;52.276;9.946;2023-04-15T12:51:58;57.70;;;26.37;;
5841;SDS011;2947;52.276;9.946;2023-04-15T12:54:25;43.53;;;22.70;;
5841;SDS011;2947;52.276;9.946;2023-04-15T12:56:53;52.00;;;21.93;;
5841;SDS011;2947;52.276;9.946;2023-04-15T12:59:19;49.83;;;21.40;;
5841;SDS011;2947;52.276;9.946;2023-04-15T13:01:47;56.40;;;24.17;;
5841;SDS011;2947;52.276;9.946;2023-04-15T13:04:14;64.13;;;28.93;;
5841;SDS011;2947;52.276;9.946;2023-04-15T13:06:40;57.17;;;27.00;;
5841;SDS011;2947;52.276;9.946;2023-04-15T13:09:06;60.77;;;25.50;;
5841;SDS011;2947;52.276;9.946;2023-04-15T13:11:32;55.90;;;26.80;;
5841;SDS011;2947;52.276;9.946;2023-04-15T13:13:59;62.27;;;25.67;;
5841;SDS011;2947;52.276;9.946;2023-04-15T13:16:29;55.97;;;24.27;;
5841;SDS011;2947;52.276;9.946;2023-04-15T13:19:00;61.43;;;26.70;;
5841;SDS011;2947;52.276;9.946;2023-04-15T13:21:27;54.23;;;24.40;;
5841;SDS011;2947;52.276;9.946;2023-04-15T13:23:53;54.93;;;26.37;;
5841;SDS011;2947;52.276;9.946;2023-04-15T13:26:19;46.57;;;24.77;;
5841;SDS011;2947;52.276;9.946;2023-04-15T13:28:45;49.80;;;24.77;;
5841;SDS011;2947;52.276;9.946;2023-04-15T13:31:11;49.20;;;24.23;;
5841;SDS011;2947;52.276;9.946;2023-04-15T13:33:37;46.73;;;22.80;;
5841;SDS011;2947;52.276;9.946;2023-04-15T13:36:03;52.87;;;24.90;;
5841;SDS011;2947;52.276;9.946;2023-04-15T13:38:29;45.43;;;23.53;;
5841;SDS011;2947;52.276;9.946;2023-04-15T13:40:55;52.00;;;24.47;;
5841;SDS011;2947;52.276;9.946;2023-04-15T13:43:21;48.73;;;24.37;;
5841;SDS011;2947;52.276;9.946;2023-04-15T13:45:47;48.37;;;24.80;;
5841;SDS011;2947;52.276;9.946;2023-04-15T13:48:13;45.10;;;23.70;;
5841;SDS011;2947;52.276;9.946;2023-04-15T13:50:40;42.70;;;22.63;;
5841;SDS011;2947;52.276;9.946;2023-04-15T13:53:09;51.30;;;23.93;;
5841;SDS011;2947;52.276;9.946;2023-04-15T13:55:36;52.23;;;23.07;;
5841;SDS011;2947;52.276;9.946;2023-04-15T13:58:05;44.23;;;22.50;;
5841;SDS011;2947;52.276;9.946;2023-04-15T14:00:32;42.40;;;22.47;;
5841;SDS011;2947;52.276;9.946;2023-04-15T14:02:58;43.47;;;23.03;;
5841;SDS011;2947;52.276;9.946;2023-04-15T14:05:23;44.87;;;22.17;;
5841;SDS011;2947;52.276;9.946;2023-04-15T14:07:49;37.77;;;22.23;;
5841;SDS011;2947;52.276;9.946;2023-04-15T14:10:15;36.30;;;20.63;;
5841;SDS011;2947;52.276;9.946;2023-04-15T14:12:41;41.53;;;21.03;;
5841;SDS011;2947;52.276;9.946;2023-04-15T14:15:07;40.67;;;21.63;;
5841;SDS011;2947;52.276;9.946;2023-04-15T14:17:33;41.97;;;22.93;;
5841;SDS011;2947;52.276;9.946;2023-04-15T14:19:59;44.17;;;23.80;;
5841;SDS011;2947;52.276;9.946;2023-04-15T14:22:27;40.13;;;21.23;;
5841;SDS011;2947;52.276;9.946;2023-04-15T14:24:54;41.63;;;21.10;;
5841;SDS011;2947;52.276;9.946;2023-04-15T14:27:20;41.63;;;22.17;;
5841;SDS011;2947;52.276;9.946;2023-04-15T14:29:47;39.53;;;20.97;;
5841;SDS011;2947;52.276;9.946;2023-04-15T14:32:13;35.00;;;20.17;;
5841;SDS011;2947;52.276;9.946;2023-04-15T14:34:38;41.70;;;21.00;;
5841;SDS011;2947;52.276;9.946;2023-04-15T14:37:04;37.70;;;20.33;;
5841;SDS011;2947;52.276;9.946;2023-04-15T14:39:30;42.03;;;21.67;;
5841;SDS011;2947;52.276;9.946;2023-04-15T14:41:56;39.20;;;19.47;;
5841;SDS011;2947;52.276;9.946;2023-04-15T14:44:21;37.43;;;21.27;;
5841;SDS011;2947;52.276;9.946;2023-04-15T14:46:48;38.80;;;20.33;;
5841;SDS011;2947;52.276;9.946;2023-04-15T14:49:13;34.87;;;19.90;;
5841;SDS011;2947;52.276;9.946;2023-04-15T14:51:39;33.87;;;19.50;;
5841;SDS011;2947;52.276;9.946;2023-04-15T14:54:05;42.23;;;19.30;;
5841;SDS011;2947;52.276;9.946;2023-04-15T14:56:31;32.13;;;18.83;;
5841;SDS011;2947;52.276;9.946;2023-04-15T14:58:56;34.77;;;19.10;;
5841;SDS011;2947;52.276;9.946;2023-04-15T15:01:22;28.60;;;18.10;;
5841;SDS011;2947;52.276;9.946;2023-04-15T15:03:49;37.30;;;20.03;;
5841;SDS011;2947;52.276;9.946;2023-04-15T15:06:15;33.80;;;19.20;;
5841;SDS011;2947;52.276;9.946;2023-04-15T15:08:41;34.50;;;19.73;;
5841;SDS011;2947;52.276;9.946;2023-04-15T15:11:06;29.57;;;18.00;;
5841;SDS011;2947;52.276;9.946;2023-04-15T15:13:32;34.17;;;18.87;;
5841;SDS011;2947;52.276;9.946;2023-04-15T15:15:58;38.53;;;18.67;;